Time;durP1;ratioP1;P1;durP2;ratioP2;P2;SDS_P1;SDS_P2;PMS_P1;PMS_P2;Temp;Humidity;BMP_temperature;BMP_pressure;BME280_temperature;BME280_humidity;BME280_pressure;Samples;Min_cycle;Max_cycle;Signal;HPM_P1;HPM_P2
2023/01/11 00:00:49;;;;;;;0.00;0.00;;;;;;;;;;6230129;22;20031;-96
2023/01/11 00:03:16;;;;;;;0.00;0.00;;;;;;;;;;6254881;22;20003;-96
2023/01/11 00:05:42;;;;;;;0.00;0.00;;;;;;;;;;6230543;22;20010;-96
2023/01/11 00:08:11;;;;;;;0.00;0.00;;;;;;;;;;6256057;22;20471;-96
2023/01/11 00:10:38;;;;;;;0.00;0.00;;;;;;;;;;6255781;22;20440;-95
2023/01/11 00:13:06;;;;;;;0.55;0.55;;;;;;;;;;6255486;22;20436;-96
2023/01/11 00:15:34;;;;;;;1.55;1.25;;;;;;;;;;6255495;22;20004;-96
2023/01/11 00:18:01;;;;;;;0.00;0.00;;;;;;;;;;6255585;22;20423;-96
2023/01/11 00:20:27;;;;;;;0.00;0.00;;;;;;;;;;6230279;22;19999;-96
2023/01/11 00:22:53;;;;;;;0.00;0.00;;;;;;;;;;6254395;22;20004;-96
2023/01/11 00:25:20;;;;;;;0.08;0.08;;;;;;;;;;6254088;22;20007;-96
2023/01/11 00:27:48;;;;;;;0.00;0.00;;;;;;;;;;6229122;22;20027;-96
2023/01/11 00:30:14;;;;;;;0.00;0.00;;;;;;;;;;6229471;22;20031;-96
2023/01/11 00:32:40;;;;;;;0.17;0.17;;;;;;;;;;6229155;22;20014;-96
2023/01/11 00:35:06;;;;;;;0.63;0.63;;;;;;;;;;6253769;22;20031;-96
2023/01/11 00:37:40;;;;;;;0.00;0.00;;;;;;;;;;6212131;22;20020;-96
2023/01/11 00:40:06;;;;;;;0.00;0.00;;;;;;;;;;6221288;23;20090;-96
2023/01/11 00:48:04;;;;;;;0.00;0.00;;;;;;;;;;6222604;23;20011;-96
2023/01/11 00:50:32;;;;;;;0.00;0.00;;;;;;;;;;6220043;23;20005;-96
2023/01/11 00:52:58;;;;;;;0.00;0.00;;;;;;;;;;6221612;23;20036;-96
2023/01/11 00:55:25;;;;;;;0.00;0.00;;;;;;;;;;6196140;23;20105;-96
2023/01/11 00:57:51;;;;;;;0.00;0.00;;;;;;;;;;6221478;23;20000;-96
2023/01/11 01:00:21;;;;;;;0.00;0.00;;;;;;;;;;6195869;23;20085;-96
2023/01/11 01:02:48;;;;;;;0.00;0.00;;;;;;;;;;6220518;23;20341;-96
2023/01/11 01:05:15;;;;;;;0.00;0.00;;;;;;;;;;6220542;23;20011;-96
2023/01/11 01:07:41;;;;;;;0.00;0.00;;;;;;;;;;6196152;23;20016;-96
2023/01/11 01:10:08;;;;;;;0.00;0.00;;;;;;;;;;6196402;23;20437;-96
2023/01/11 01:15:20;;;;;;;0.00;0.00;;;;;;;;;;6222032;23;20459;-96
2023/01/11 01:17:46;;;;;;;0.00;0.00;;;;;;;;;;6196509;23;20008;-96
2023/01/11 01:20:13;;;;;;;0.00;0.00;;;;;;;;;;6195992;23;20005;-96
2023/01/11 01:22:40;;;;;;;0.00;0.00;;;;;;;;;;6221959;23;20000;-96
2023/01/11 01:25:06;;;;;;;0.00;0.00;;;;;;;;;;6196004;23;20008;-96
2023/01/11 01:27:33;;;;;;;0.00;0.00;;;;;;;;;;6221187;23;20001;-96
2023/01/11 01:29:59;;;;;;;0.00;0.00;;;;;;;;;;6195762;23;20460;-96
2023/01/11 01:32:25;;;;;;;0.00;0.00;;;;;;;;;;6196087;23;20013;-96
2023/01/11 01:34:51;;;;;;;0.00;0.00;;;;;;;;;;6195950;23;20015;-96
2023/01/11 01:37:17;;;;;;;0.00;0.00;;;;;;;;;;6206890;22;20035;-96
2023/01/11 01:39:43;;;;;;;0.00;0.00;;;;;;;;;;6225947;23;20004;-96
2023/01/11 01:42:13;;;;;;;0.00;0.00;;;;;;;;;;6225376;23;20008;-96
2023/01/11 01:44:53;;;;;;;0.00;0.00;;;;;;;;;;6249891;23;20011;-96
2023/01/11 01:47:21;;;;;;;0.00;0.00;;;;;;;;;;6251393;23;20057;-96
2023/01/11 01:49:53;;;;;;;0.00;0.00;;;;;;;;;;6250477;23;20014;-95
2023/01/11 01:52:19;;;;;;;0.00;0.00;;;;;;;;;;6250824;23;20482;-96
2023/01/11 01:54:47;;;;;;;0.00;0.00;;;;;;;;;;6225617;23;20039;-96
2023/01/11 01:57:25;;;;;;;0.00;0.00;;;;;;;;;;6250740;23;20030;-96
2023/01/11 01:59:52;;;;;;;0.00;0.00;;;;;;;;;;6249976;23;20011;-96
2023/01/11 02:02:23;;;;;;;0.00;0.00;;;;;;;;;;6250110;23;20084;-96
2023/01/11 02:04:50;;;;;;;0.40;0.40;;;;;;;;;;6249953;23;20004;-96
2023/01/11 02:07:18;;;;;;;0.00;0.00;;;;;;;;;;6225408;23;20371;-96
2023/01/11 02:09:54;;;;;;;0.00;0.00;;;;;;;;;;6250203;23;20039;-96
2023/01/11 02:12:23;;;;;;;0.00;0.00;;;;;;;;;;6249898;23;20427;-96
2023/01/11 02:14:55;;;;;;;0.00;0.00;;;;;;;;;;6250162;23;20004;-96
2023/01/11 02:17:21;;;;;;;0.00;0.00;;;;;;;;;;6224843;23;20016;-96
2023/01/11 02:20:08;;;;;;;0.00;0.00;;;;;;;;;;6225295;23;20424;-96
2023/01/11 02:23:00;;;;;;;0.00;0.00;;;;;;;;;;6251284;23;20004;-96
2023/01/11 02:25:47;;;;;;;0.00;0.00;;;;;;;;;;6216946;23;20039;-96
2023/01/11 02:28:26;;;;;;;0.00;0.00;;;;;;;;;;6251950;23;20035;-96
2023/01/11 02:31:11;;;;;;;0.00;0.00;;;;;;;;;;6253770;23;20024;-96
2023/01/11 02:34:01;;;;;;;0.00;0.00;;;;;;;;;;6255018;23;19995;-96
2023/01/11 02:36:27;;;;;;;0.00;0.00;;;;;;;;;;6258005;22;20027;-96
2023/01/11 02:38:57;;;;;;;0.00;0.00;;;;;;;;;;6260167;22;20048;-96
2023/01/11 02:45:00;;;;;;;0.00;0.00;;;;;;;;;;6269170;23;20026;-96
2023/01/11 02:47:17;;;;;;;2.08;1.38;;;;;;;;;;6271227;23;20088;-96
2023/01/11 02:50:03;;;;;;;0.00;0.00;;;;;;;;;;6265236;23;20387;-96
2023/01/11 02:52:34;;;;;;;0.00;0.00;;;;;;;;;;6262750;23;20006;-96
2023/01/11 02:55:00;;;;;;;0.00;0.00;;;;;;;;;;6255906;23;20011;-96
2023/01/11 02:57:28;;;;;;;0.00;0.00;;;;;;;;;;6254792;23;20465;-96
2023/01/11 02:59:56;;;;;;;0.00;0.00;;;;;;;;;;6229818;23;20012;-96
2023/01/11 03:02:23;;;;;;;0.00;0.00;;;;;;;;;;6255875;23;20004;-96
2023/01/11 03:04:49;;;;;;;0.00;0.00;;;;;;;;;;6229650;23;20008;-96
2023/01/11 03:07:34;;;;;;;0.00;0.00;;;;;;;;;;6228831;23;20008;-96
2023/01/11 03:10:18;;;;;;;0.00;0.00;;;;;;;;;;6252628;23;20005;-96
2023/01/11 03:12:51;;;;;;;0.00;0.00;;;;;;;;;;6252193;23;20004;-96
2023/01/11 03:15:25;;;;;;;0.00;0.00;;;;;;;;;;6252145;23;20004;-96
2023/01/11 03:18:01;;;;;;;0.00;0.00;;;;;;;;;;6252414;23;20011;-96
2023/01/11 03:20:31;;;;;;;0.00;0.00;;;;;;;;;;6251032;23;20000;-96
2023/01/11 03:23:15;;;;;;;0.00;0.00;;;;;;;;;;6251029;23;20068;-96
2023/01/11 03:26:00;;;;;;;0.00;0.00;;;;;;;;;;6250300;23;20424;-96
2023/01/11 03:28:26;;;;;;;0.00;0.00;;;;;;;;;;6249745;23;20008;-96
2023/01/11 03:31:00;;;;;;;0.00;0.00;;;;;;;;;;6249726;23;20431;-96
2023/01/11 03:33:41;;;;;;;0.00;0.00;;;;;;;;;;6250431;23;20004;-96
2023/01/11 03:36:11;;;;;;;0.00;0.00;;;;;;;;;;6250295;23;20012;-95
2023/01/11 03:38:45;;;;;;;0.00;0.00;;;;;;;;;;6251025;22;20019;-96
2023/01/11 03:41:15;;;;;;;0.00;0.00;;;;;;;;;;6250254;23;20408;-96
2023/01/11 03:43:43;;;;;;;0.00;0.00;;;;;;;;;;6249257;23;20000;-96
2023/01/11 03:46:11;;;;;;;0.00;0.00;;;;;;;;;;6249699;23;20036;-96
2023/01/11 03:48:40;;;;;;;0.00;0.00;;;;;;;;;;6249492;23;20008;-96
2023/01/11 03:51:09;;;;;;;0.00;0.00;;;;;;;;;;6248867;23;20011;-96
2023/01/11 03:53:36;;;;;;;0.00;0.00;;;;;;;;;;6249535;23;20015;-96
2023/01/11 03:56:04;;;;;;;0.00;0.00;;;;;;;;;;6249301;23;20490;-96
2023/01/11 03:58:30;;;;;;;0.00;0.00;;;;;;;;;;6250124;23;20008;-96
2023/01/11 04:00:57;;;;;;;0.00;0.00;;;;;;;;;;6224985;23;20015;-96
2023/01/11 04:03:27;;;;;;;0.00;0.00;;;;;;;;;;6250092;23;20087;-96
2023/01/11 04:05:56;;;;;;;0.00;0.00;;;;;;;;;;6250046;23;20008;-96
2023/01/11 04:08:22;;;;;;;0.00;0.00;;;;;;;;;;6250875;23;20004;-96
2023/01/11 04:10:48;;;;;;;0.00;0.00;;;;;;;;;;6225513;23;20012;-96
2023/01/11 04:13:15;;;;;;;0.00;0.00;;;;;;;;;;6227585;23;20016;-96
2023/01/11 04:15:41;;;;;;;0.00;0.00;;;;;;;;;;6227285;23;20035;-96
2023/01/11 04:18:07;;;;;;;0.00;0.00;;;;;;;;;;6252506;23;20035;-96
2023/01/11 04:20:40;;;;;;;0.00;0.00;;;;;;;;;;6251953;23;20332;-96
2023/01/11 04:23:08;;;;;;;0.00;0.00;;;;;;;;;;6226527;23;20012;-96
2023/01/11 04:25:34;;;;;;;0.00;0.00;;;;;;;;;;6251872;23;20069;-96
2023/01/11 04:28:04;;;;;;;0.03;0.03;;;;;;;;;;6227947;23;20305;-96
2023/01/11 04:44:04;;;;;;;0.00;0.00;;;;;;;;;;6262679;22;20027;-96
2023/01/11 04:46:30;;;;;;;0.00;0.00;;;;;;;;;;6248488;23;20347;-95
2023/01/11 04:48:58;;;;;;;0.00;0.00;;;;;;;;;;6226093;23;20019;-96
2023/01/11 04:51:24;;;;;;;0.00;0.00;;;;;;;;;;6226005;23;20012;-96
2023/01/11 04:53:50;;;;;;;0.00;0.00;;;;;;;;;;6225611;23;20310;-96
2023/01/11 04:56:17;;;;;;;0.10;0.10;;;;;;;;;;6225367;23;20075;-96
2023/01/11 04:58:43;;;;;;;0.00;0.00;;;;;;;;;;6226706;23;20064;-96
2023/01/11 05:01:17;;;;;;;0.00;0.00;;;;;;;;;;6225734;23;20005;-96
2023/01/11 05:03:46;;;;;;;0.00;0.00;;;;;;;;;;6226057;23;20007;-96
2023/01/11 05:06:12;;;;;;;0.00;0.00;;;;;;;;;;6225745;23;20004;-95
2023/01/11 05:08:39;;;;;;;0.00;0.00;;;;;;;;;;6226995;23;20058;-96
2023/01/11 05:11:06;;;;;;;0.00;0.00;;;;;;;;;;6226479;23;20008;-95
2023/01/11 05:13:42;;;;;;;0.00;0.00;;;;;;;;;;6226614;23;20427;-96
2023/01/11 05:16:19;;;;;;;0.00;0.00;;;;;;;;;;6228465;23;20008;-96
2023/01/11 05:18:45;;;;;;;0.30;0.30;;;;;;;;;;6224714;23;20339;-95
2023/01/11 05:21:12;;;;;;;0.00;0.00;;;;;;;;;;6225552;23;20004;-95
2023/01/11 05:23:38;;;;;;;0.00;0.00;;;;;;;;;;6224575;23;20495;-95
2023/01/11 05:26:18;;;;;;;0.00;0.00;;;;;;;;;;6224768;23;20428;-95
2023/01/11 05:28:44;;;;;;;0.00;0.00;;;;;;;;;;6225550;23;20071;-95
2023/01/11 05:31:10;;;;;;;0.00;0.00;;;;;;;;;;6224692;23;20010;-95
2023/01/11 05:33:36;;;;;;;0.00;0.00;;;;;;;;;;6225413;23;20465;-96
2023/01/11 05:36:07;;;;;;;0.00;0.00;;;;;;;;;;6225856;23;20008;-95
2023/01/11 05:38:33;;;;;;;0.00;0.00;;;;;;;;;;6226665;23;20010;-96
2023/01/11 05:41:01;;;;;;;0.00;0.00;;;;;;;;;;6210834;22;20456;-94
2023/01/11 05:43:27;;;;;;;0.00;0.00;;;;;;;;;;6191501;23;20341;-96
2023/01/11 05:45:56;;;;;;;0.00;0.00;;;;;;;;;;6190995;23;20016;-95
2023/01/11 05:48:22;;;;;;;0.00;0.00;;;;;;;;;;6191763;23;20322;-96
2023/01/11 05:50:55;;;;;;;0.00;0.00;;;;;;;;;;6190397;23;20013;-96
2023/01/11 05:53:26;;;;;;;0.00;0.00;;;;;;;;;;6190170;23;20040;-96
2023/01/11 05:55:57;;;;;;;0.00;0.00;;;;;;;;;;6189371;23;20377;-96
2023/01/11 05:58:24;;;;;;;0.00;0.00;;;;;;;;;;6191339;23;20437;-96
2023/01/11 06:00:52;;;;;;;0.00;0.00;;;;;;;;;;6191588;23;20005;-94
2023/01/11 06:03:19;;;;;;;0.00;0.00;;;;;;;;;;6191291;23;20008;-96
2023/01/11 06:05:45;;;;;;;0.00;0.00;;;;;;;;;;6200085;23;20035;-96
2023/01/11 06:08:11;;;;;;;0.00;0.00;;;;;;;;;;6201933;23;20004;-96
2023/01/11 06:10:38;;;;;;;0.00;0.00;;;;;;;;;;6199629;23;20009;-96
2023/01/11 06:15:49;;;;;;;0.20;0.20;;;;;;;;;;6201817;23;20020;-96
2023/01/11 06:18:16;;;;;;;3.92;0.68;;;;;;;;;;6209124;23;20028;-96
2023/01/11 06:20:42;;;;;;;0.00;0.00;;;;;;;;;;6209819;23;20001;-96
2023/01/11 06:23:08;;;;;;;0.00;0.00;;;;;;;;;;6204818;23;20023;-96
2023/01/11 06:25:36;;;;;;;0.00;0.00;;;;;;;;;;6203108;23;20361;-96
2023/01/11 06:28:03;;;;;;;0.00;0.00;;;;;;;;;;6199272;23;20013;-96
2023/01/11 06:30:30;;;;;;;0.00;0.00;;;;;;;;;;6197842;23;20013;-96
2023/01/11 06:33:04;;;;;;;0.00;0.00;;;;;;;;;;6195655;23;20004;-97
2023/01/11 06:35:30;;;;;;;0.00;0.00;;;;;;;;;;6194646;23;20005;-96
2023/01/11 06:37:56;;;;;;;0.00;0.00;;;;;;;;;;6195027;23;20002;-96
2023/01/11 06:40:22;;;;;;;0.00;0.00;;;;;;;;;;6205402;22;20007;-97
2023/01/11 06:42:49;;;;;;;1.33;1.23;;;;;;;;;;6230049;23;20011;-96
2023/01/11 06:45:15;;;;;;;0.00;0.00;;;;;;;;;;6231184;23;20027;-96
2023/01/11 06:47:41;;;;;;;0.00;0.00;;;;;;;;;;6230446;23;20057;-96
2023/01/11 06:50:08;;;;;;;0.00;0.00;;;;;;;;;;6229884;23;20451;-96
2023/01/11 06:52:34;;;;;;;0.00;0.00;;;;;;;;;;6233306;23;20012;-96
2023/01/11 06:55:01;;;;;;;0.00;0.00;;;;;;;;;;6228841;23;20046;-96
2023/01/11 06:57:27;;;;;;;0.00;0.00;;;;;;;;;;6229379;23;20008;-96
2023/01/11 06:59:53;;;;;;;3.95;0.38;;;;;;;;;;6228968;23;20169;-96
2023/01/11 07:02:20;;;;;;;26.05;2.67;;;;;;;;;;6233808;23;20008;-96
2023/01/11 07:04:46;;;;;;;21.00;2.72;;;;;;;;;;6229796;23;20030;-96
2023/01/11 07:07:13;;;;;;;19.80;1.95;;;;;;;;;;6229068;23;20031;-96
2023/01/11 07:09:39;;;;;;;22.77;2.70;;;;;;;;;;6229793;23;20015;-96
2023/01/11 07:12:05;;;;;;;18.67;2.28;;;;;;;;;;6229686;23;20050;-96
2023/01/11 07:14:41;;;;;;;30.70;3.38;;;;;;;;;;6229349;23;20008;-96
2023/01/11 07:17:07;;;;;;;17.20;3.13;;;;;;;;;;6228007;23;20008;-96
2023/01/11 07:19:33;;;;;;;15.80;3.00;;;;;;;;;;6229619;23;20035;-96
2023/01/11 07:21:59;;;;;;;22.25;2.65;;;;;;;;;;6228089;23;20007;-96
2023/01/11 07:24:26;;;;;;;15.15;2.17;;;;;;;;;;6227940;23;20061;-96
2023/01/11 07:26:53;;;;;;;18.80;2.72;;;;;;;;;;6228672;23;20043;-96
2023/01/11 07:29:20;;;;;;;23.35;3.15;;;;;;;;;;6228112;23;20058;-96
2023/01/11 07:31:46;;;;;;;22.55;2.95;;;;;;;;;;6228184;23;20008;-94
2023/01/11 07:34:13;;;;;;;37.45;4.70;;;;;;;;;;6228080;23;20089;-95
2023/01/11 07:36:39;;;;;;;23.80;2.63;;;;;;;;;;6227949;23;20004;-95
2023/01/11 07:39:05;;;;;;;16.63;2.88;;;;;;;;;;6227741;23;20317;-95
2023/01/11 07:44:16;;;;;;;23.63;3.08;;;;;;;;;;6192627;23;20020;-96
2023/01/11 07:46:42;;;;;;;26.10;3.40;;;;;;;;;;6192694;23;20104;-95
2023/01/11 07:49:08;;;;;;;21.95;4.30;;;;;;;;;;6195119;23;20079;-96
2023/01/11 07:51:35;;;;;;;20.42;3.22;;;;;;;;;;6195046;23;20064;-95
2023/01/11 07:54:02;;;;;;;26.65;3.50;;;;;;;;;;6196035;23;20437;-96
2023/01/11 07:56:29;;;;;;;24.08;3.25;;;;;;;;;;6195170;23;20059;-94
2023/01/11 07:58:55;;;;;;;33.38;3.70;;;;;;;;;;6194353;23;20005;-95
2023/01/11 08:01:21;;;;;;;18.52;2.78;;;;;;;;;;6194131;23;20040;-94
2023/01/11 08:03:47;;;;;;;30.10;4.28;;;;;;;;;;6193547;23;20001;-95
2023/01/11 08:06:14;;;;;;;31.73;3.50;;;;;;;;;;6195643;23;20401;-96
2023/01/11 08:08:40;;;;;;;14.40;2.53;;;;;;;;;;6194737;23;20385;-95
2023/01/11 08:16:36;;;;;;;11.80;2.47;;;;;;;;;;6196915;23;20048;-96
2023/01/11 08:19:02;;;;;;;24.65;3.78;;;;;;;;;;6194218;23;20018;-96
2023/01/11 08:21:28;;;;;;;19.27;2.30;;;;;;;;;;6194094;23;20430;-95
2023/01/11 08:23:58;;;;;;;21.27;3.17;;;;;;;;;;6194728;23;20009;-95
2023/01/11 08:26:25;;;;;;;23.00;3.20;;;;;;;;;;6194273;23;20017;-95
2023/01/11 08:28:52;;;;;;;9.70;2.65;;;;;;;;;;6193756;23;20438;-95
2023/01/11 08:31:18;;;;;;;16.45;3.22;;;;;;;;;;6193479;23;20009;-95
2023/01/11 08:33:45;;;;;;;21.30;2.05;;;;;;;;;;6194360;23;20019;-95
2023/01/11 08:36:11;;;;;;;12.85;2.67;;;;;;;;;;6193694;23;20013;-95
2023/01/11 08:38:38;;;;;;;19.50;2.70;;;;;;;;;;6193846;23;20005;-95
2023/01/11 08:41:21;;;;;;;19.48;2.53;;;;;;;;;;6210436;22;20026;-95
2023/01/11 08:43:48;;;;;;;21.13;2.30;;;;;;;;;;6228618;23;20060;-95
2023/01/11 08:46:15;;;;;;;21.65;2.97;;;;;;;;;;6228071;23;20012;-96
2023/01/11 08:48:42;;;;;;;14.40;2.00;;;;;;;;;;6228220;23;20007;-95
2023/01/11 08:51:08;;;;;;;6.95;1.70;;;;;;;;;;6229811;23;20035;-95
2023/01/11 08:53:37;;;;;;;14.95;3.25;;;;;;;;;;6229174;23;20008;-95
2023/01/11 08:56:03;;;;;;;26.95;2.78;;;;;;;;;;6229393;23;20447;-95
2023/01/11 08:58:29;;;;;;;29.13;2.85;;;;;;;;;;6227402;23;20458;-95
2023/01/11 09:01:01;;;;;;;21.67;2.80;;;;;;;;;;6228098;23;19996;-95
2023/01/11 09:03:28;;;;;;;24.67;2.80;;;;;;;;;;6230493;23;20004;-94
2023/01/11 09:05:57;;;;;;;27.83;3.65;;;;;;;;;;6232335;23;20347;-96
2023/01/11 09:08:24;;;;;;;15.00;2.70;;;;;;;;;;6230201;23;20432;-95
2023/01/11 09:10:50;;;;;;;19.40;2.30;;;;;;;;;;6229463;23;20008;-95
2023/01/11 09:13:25;;;;;;;16.95;2.92;;;;;;;;;;6229061;23;20511;-95
2023/01/11 09:15:56;;;;;;;20.42;3.33;;;;;;;;;;6229992;23;20083;-96
2023/01/11 09:18:25;;;;;;;18.77;3.05;;;;;;;;;;6231180;23;20320;-96
2023/01/11 09:20:54;;;;;;;11.38;2.67;;;;;;;;;;6231225;23;20454;-95
2023/01/11 09:23:20;;;;;;;18.25;2.60;;;;;;;;;;6231437;23;20019;-95
2023/01/11 09:25:47;;;;;;;24.10;3.15;;;;;;;;;;6232095;23;20027;-96
2023/01/11 09:28:13;;;;;;;19.70;2.40;;;;;;;;;;6232694;23;20016;-96
2023/01/11 09:30:39;;;;;;;17.05;2.75;;;;;;;;;;6234105;23;20014;-96
2023/01/11 09:33:05;;;;;;;20.80;2.75;;;;;;;;;;6235154;23;20012;-96
2023/01/11 09:35:37;;;;;;;16.25;2.63;;;;;;;;;;6239194;23;20036;-96
2023/01/11 09:38:03;;;;;;;13.95;2.95;;;;;;;;;;6245484;23;20004;-95
2023/01/11 09:40:34;;;;;;;21.85;3.22;;;;;;;;;;6248578;23;20019;-94
2023/01/11 09:43:03;;;;;;;19.52;3.17;;;;;;;;;;6216707;22;20012;-95
2023/01/11 09:45:31;;;;;;;16.95;2.50;;;;;;;;;;6212022;23;20009;-95
2023/01/11 09:48:10;;;;;;;18.58;2.63;;;;;;;;;;6203865;23;20028;-96
2023/01/11 09:50:40;;;;;;;13.15;2.03;;;;;;;;;;6202979;23;20005;-96
2023/01/11 09:53:08;;;;;;;10.90;1.95;;;;;;;;;;6196821;23;20009;-96
2023/01/11 09:55:40;;;;;;;17.23;2.42;;;;;;;;;;6196247;23;20005;-96
2023/01/11 09:58:33;;;;;;;15.00;2.53;;;;;;;;;;6195119;23;20008;-96
2023/01/11 10:01:11;;;;;;;12.98;2.13;;;;;;;;;;6194724;23;20004;-96
2023/01/11 10:04:01;;;;;;;16.25;3.45;;;;;;;;;;6195430;23;20001;-96
2023/01/11 10:06:42;;;;;;;13.82;2.33;;;;;;;;;;6195746;23;20009;-96
2023/01/11 10:09:21;;;;;;;11.25;1.88;;;;;;;;;;6195388;23;20014;-96
2023/01/11 10:11:54;;;;;;;15.02;2.28;;;;;;;;;;6195275;23;20015;-96
2023/01/11 10:14:34;;;;;;;10.00;2.53;;;;;;;;;;6194378;23;20342;-96
2023/01/11 10:17:19;;;;;;;14.70;2.25;;;;;;;;;;6195594;23;20028;-96
2023/01/11 10:19:48;;;;;;;10.85;1.70;;;;;;;;;;6194789;23;20093;-96
2023/01/11 10:22:23;;;;;;;9.93;1.98;;;;;;;;;;6195239;23;20055;-96
2023/01/11 10:25:00;;;;;;;6.93;1.85;;;;;;;;;;6194800;23;20008;-96
2023/01/11 10:27:26;;;;;;;10.15;1.60;;;;;;;;;;6196553;23;20011;-96
2023/01/11 10:30:10;;;;;;;7.13;2.03;;;;;;;;;;6194827;23;20036;-96
2023/01/11 10:35:57;;;;;;;22.08;2.30;;;;;;;;;;6196579;23;20028;-96
2023/01/11 10:39:01;;;;;;;12.23;3.03;;;;;;;;;;6195692;23;20008;-96
2023/01/11 10:42:03;;;;;;;12.40;2.13;;;;;;;;;;6205514;22;20023;-96
2023/01/11 10:44:36;;;;;;;6.03;1.92;;;;;;;;;;6211407;23;20001;-96
2023/01/11 10:47:03;;;;;;;3.63;1.50;;;;;;;;;;6226438;23;20028;-96
2023/01/11 10:49:43;;;;;;;16.30;1.98;;;;;;;;;;6225910;23;20062;-96
2023/01/11 10:52:32;;;;;;;5.75;1.45;;;;;;;;;;6225936;23;20012;-96
2023/01/11 10:55:01;;;;;;;7.20;2.17;;;;;;;;;;6227089;23;20012;-96
2023/01/11 10:57:54;;;;;;;12.20;2.55;;;;;;;;;;6227017;23;20336;-96
2023/01/11 11:00:55;;;;;;;17.52;1.48;;;;;;;;;;6226445;23;20008;-95
2023/01/11 11:03:38;;;;;;;8.10;1.20;;;;;;;;;;6228248;23;20009;-96
2023/01/11 11:06:14;;;;;;;15.00;2.40;;;;;;;;;;6228780;23;20039;-96
2023/01/11 11:08:47;;;;;;;7.60;1.80;;;;;;;;;;6226835;23;20032;-96
2023/01/11 11:11:18;;;;;;;10.20;1.88;;;;;;;;;;6226652;23;20096;-96
2023/01/11 11:13:53;;;;;;;14.43;2.55;;;;;;;;;;6226814;23;20009;-96
2023/01/11 11:16:23;;;;;;;7.60;2.03;;;;;;;;;;6227755;23;20015;-96
2023/01/11 11:18:50;;;;;;;16.17;2.40;;;;;;;;;;6226610;23;20028;-96
2023/01/11 11:21:24;;;;;;;5.45;1.23;;;;;;;;;;6226051;23;20068;-96
2023/01/11 11:23:56;;;;;;;19.10;3.60;;;;;;;;;;6228696;23;20444;-96
2023/01/11 11:26:25;;;;;;;8.73;1.67;;;;;;;;;;6230466;23;20060;-96
2023/01/11 11:29:02;;;;;;;7.13;1.42;;;;;;;;;;6231437;23;20064;-96
2023/01/11 11:31:31;;;;;;;15.65;2.80;;;;;;;;;;6231707;23;20005;-96
2023/01/11 11:34:05;;;;;;;13.73;2.08;;;;;;;;;;6232801;23;20325;-96
2023/01/11 11:36:50;;;;;;;3.80;1.30;;;;;;;;;;6233809;23;20008;-96
2023/01/11 11:39:17;;;;;;;21.23;2.60;;;;;;;;;;6234435;23;20001;-96
2023/01/11 11:41:58;;;;;;;13.25;3.28;;;;;;;;;;6214508;22;20027;-96
2023/01/11 11:44:32;;;;;;;6.40;2.20;;;;;;;;;;6200904;23;20017;-96
2023/01/11 11:47:10;;;;;;;10.07;2.00;;;;;;;;;;6202137;23;20016;-96
2023/01/11 11:49:38;;;;;;;15.13;2.67;;;;;;;;;;6228720;23;20009;-96
2023/01/11 11:52:34;;;;;;;10.95;1.77;;;;;;;;;;6203084;23;20009;-96
2023/01/11 11:55:05;;;;;;;19.88;2.97;;;;;;;;;;6203921;23;20009;-96
2023/01/11 11:57:38;;;;;;;14.63;2.78;;;;;;;;;;6202720;23;20009;-96
2023/01/11 12:00:20;;;;;;;11.70;3.00;;;;;;;;;;6201719;23;20460;-97
2023/01/11 12:02:49;;;;;;;13.43;2.20;;;;;;;;;;6198903;23;20413;-96
2023/01/11 12:05:16;;;;;;;9.35;1.25;;;;;;;;;;6199980;23;20048;-96
2023/01/11 12:07:47;;;;;;;6.57;1.23;;;;;;;;;;6203049;23;20025;-96
2023/01/11 12:10:24;;;;;;;12.48;1.98;;;;;;;;;;6208360;23;20005;-96
2023/01/11 12:13:27;;;;;;;16.48;1.75;;;;;;;;;;6210126;23;20005;-96
2023/01/11 12:16:03;;;;;;;5.63;2.20;;;;;;;;;;6210248;23;20012;-96
2023/01/11 12:18:52;;;;;;;12.95;2.47;;;;;;;;;;6211025;23;20005;-96
2023/01/11 12:21:33;;;;;;;9.05;2.05;;;;;;;;;;6207696;23;20037;-96
2023/01/11 12:24:25;;;;;;;26.10;3.08;;;;;;;;;;6212351;23;20088;-96
2023/01/11 12:43:01;;;;;;;19.08;2.80;;;;;;;;;;6239393;22;20027;-92
2023/01/11 12:45:33;;;;;;;23.02;3.88;;;;;;;;;;6258101;22;20019;-93
2023/01/11 12:48:38;;;;;;;10.68;2.88;;;;;;;;;;6258718;22;20027;-92
2023/01/11 12:51:18;;;;;;;20.95;2.50;;;;;;;;;;6107249;23;20085;-93
2023/01/11 12:54:09;;;;;;;16.60;3.10;;;;;;;;;;6247501;22;20004;-92
2023/01/11 12:56:55;;;;;;;18.23;3.40;;;;;;;;;;6258100;22;20027;-92
2023/01/11 12:59:27;;;;;;;9.82;2.75;;;;;;;;;;6257525;22;20010;-92
2023/01/11 13:01:53;;;;;;;14.52;3.17;;;;;;;;;;6257741;22;20321;-92
2023/01/11 13:04:25;;;;;;;22.10;2.80;;;;;;;;;;6257454;22;20431;-92
2023/01/11 13:07:01;;;;;;;12.23;1.38;;;;;;;;;;6287850;22;20007;-92
2023/01/11 13:09:45;;;;;;;17.88;2.60;;;;;;;;;;6286619;22;20003;-92
2023/01/11 13:12:32;;;;;;;15.25;2.60;;;;;;;;;;6286328;22;20014;-93
2023/01/11 13:15:01;;;;;;;10.15;2.00;;;;;;;;;;6287736;22;20007;-93
2023/01/11 13:17:32;;;;;;;14.35;2.58;;;;;;;;;;6286704;22;20010;-93
2023/01/11 13:20:28;;;;;;;19.08;2.17;;;;;;;;;;6287763;22;20010;-93
2023/01/11 13:23:17;;;;;;;9.85;2.13;;;;;;;;;;6287454;22;20018;-93
2023/01/11 13:25:48;;;;;;;16.95;4.25;;;;;;;;;;6267828;22;20023;-93
2023/01/11 13:28:38;;;;;;;9.40;1.77;;;;;;;;;;6288324;22;20034;-92
2023/01/11 13:31:08;;;;;;;23.45;2.85;;;;;;;;;;6287459;22;20030;-92
2023/01/11 13:33:36;;;;;;;15.63;2.70;;;;;;;;;;6287618;22;20003;-92
2023/01/11 13:36:02;;;;;;;14.75;2.45;;;;;;;;;;6287667;22;20004;-92
2023/01/11 13:38:50;;;;;;;15.32;3.13;;;;;;;;;;6287026;22;19999;-92
2023/01/11 13:41:25;;;;;;;39.33;3.67;;;;;;;;;;6287138;22;20003;-92
2023/01/11 13:44:02;;;;;;;21.02;2.58;;;;;;;;;;6269270;22;20503;-92
2023/01/11 13:46:41;;;;;;;27.90;3.70;;;;;;;;;;6226417;23;20028;-93
2023/01/11 13:55:53;;;;;;;27.85;3.50;;;;;;;;;;6223057;22;20023;-95
2023/01/11 13:58:27;;;;;;;11.13;2.38;;;;;;;;;;6252270;23;20087;-94
2023/01/11 14:30:43;;;;;;;12.02;2.17;;;;;;;;;;6231589;22;20035;-91
2023/01/11 14:33:39;;;;;;;16.38;2.83;;;;;;;;;;6203254;22;20012;-93
2023/01/11 14:36:20;;;;;;;18.00;2.60;;;;;;;;;;6225478;23;20008;-93
2023/01/11 14:39:15;;;;;;;22.30;3.50;;;;;;;;;;6224821;23;20011;-93
2023/01/11 14:42:05;;;;;;;27.63;3.20;;;;;;;;;;6226760;23;20000;-93
2023/01/11 14:44:36;;;;;;;25.48;3.67;;;;;;;;;;6208635;23;20015;-93
2023/01/11 14:47:27;;;;;;;19.27;3.08;;;;;;;;;;6228784;23;20008;-93
2023/01/11 14:50:24;;;;;;;26.00;2.72;;;;;;;;;;6227241;23;20432;-93
2023/01/11 14:52:55;;;;;;;15.88;2.10;;;;;;;;;;6227334;23;20031;-93
2023/01/11 14:55:39;;;;;;;24.02;2.97;;;;;;;;;;6202932;23;20008;-93
2023/01/11 14:58:25;;;;;;;26.10;3.45;;;;;;;;;;6225432;23;20004;-92
2023/01/11 15:03:51;;;;;;;9.85;2.33;;;;;;;;;;6251109;23;19907;-93
2023/01/11 15:06:21;;;;;;;20.77;3.83;;;;;;;;;;6248404;22;20449;-91
2023/01/11 15:08:55;;;;;;;17.67;2.67;;;;;;;;;;6231154;22;20018;-92
2023/01/11 15:11:43;;;;;;;20.00;2.63;;;;;;;;;;6255237;22;20086;-92
2023/01/11 15:14:36;;;;;;;7.60;2.13;;;;;;;;;;6231332;22;20004;-91
2023/01/11 15:20:14;;;;;;;32.15;3.88;;;;;;;;;;6282905;22;20064;-92
2023/01/11 15:22:49;;;;;;;19.10;2.83;;;;;;;;;;6256600;22;20003;-92
2023/01/11 15:25:21;;;;;;;32.28;3.65;;;;;;;;;;6231292;22;20038;-93
2023/01/11 15:27:54;;;;;;;32.53;3.10;;;;;;;;;;6256232;22;20011;-92
2023/01/11 15:30:41;;;;;;;18.98;4.15;;;;;;;;;;6256519;22;20004;-93
2023/01/11 15:33:35;;;;;;;20.67;2.95;;;;;;;;;;6254452;22;20072;-93
2023/01/11 15:36:26;;;;;;;;;;;;;;;;;;;;;
2023/01/11 15:39:05;;;;;;;17.98;3.03;;;;;;;;;;6253487;23;20031;-93
2023/01/11 15:44:31;;;;;;;26.92;3.65;;;;;;;;;;6250923;23;20015;-96
2023/01/11 15:47:22;;;;;;;23.20;2.55;;;;;;;;;;6249126;23;20062;-93
2023/01/11 15:50:08;;;;;;;;;;;;;;;;;;;;;
2023/01/11 15:52:34;;;;;;;;;;;;;;;;;;6251033;23;20039;-92
2023/01/11 15:55:22;;;;;;;21.05;4.68;;;;;;;;;;6225585;23;19911;-92
2023/01/11 15:58:07;;;;;;;32.92;3.30;;;;;;;;;;6223926;23;20004;-92
2023/01/11 16:01:01;;;;;;;22.35;3.45;;;;;;;;;;6224751;23;20416;-92
2023/01/11 16:03:31;;;;;;;11.43;2.53;;;;;;;;;;6223781;23;20058;-92
2023/01/11 16:06:13;;;;;;;8.25;1.48;;;;;;;;;;6222525;23;20087;-92
2023/01/11 16:08:53;;;;;;;20.13;2.10;;;;;;;;;;6222905;23;20083;-91
2023/01/11 16:11:22;;;;;;;28.33;2.92;;;;;;;;;;6224256;23;20008;-91
2023/01/11 16:17:15;;;;;;;20.65;3.25;;;;;;;;;;6205655;23;20036;-95
2023/01/11 16:20:11;;;;;;;24.52;3.35;;;;;;;;;;6226033;23;20011;-95
2023/01/11 16:22:57;;;;;;;28.52;3.38;;;;;;;;;;6096129;23;20331;-96
2023/01/11 16:26:11;;;;;;;17.67;3.13;;;;;;;;;;6227322;23;20004;-95
2023/01/11 16:38:19;;;;;;;17.45;3.13;;;;;;;;;;6130452;23;20040;-91
2023/01/11 16:40:59;;;;;;;20.42;2.50;;;;;;;;;;6129030;23;20487;-90
2023/01/11 16:43:28;;;;;;;22.65;3.28;;;;;;;;;;6180288;23;20328;-90
2023/01/11 16:46:02;;;;;;;18.23;2.47;;;;;;;;;;6221066;23;20012;-91
2023/01/11 16:48:29;;;;;;;17.88;3.75;;;;;;;;;;6195097;23;20020;-90
2023/01/11 16:51:15;;;;;;;16.77;4.18;;;;;;;;;;6195337;23;20340;-90
2023/01/11 16:53:43;;;;;;;17.90;2.47;;;;;;;;;;6219178;23;20452;-90
2023/01/11 16:56:15;;;;;;;15.25;2.72;;;;;;;;;;6220744;23;20028;-91
2023/01/11 20:14:39;;;;;;;15.18;2.50;;;;;;;;;;6288951;22;20019;-94
2023/01/11 20:17:12;;;;;;;21.50;1.63;;;;;;;;;;6263674;22;20022;-95
2023/01/11 20:19:39;;;;;;;14.02;2.35;;;;;;;;;;6296605;22;19994;-96